sensor_id;sensor_type;location;lat;lon;timestamp;P1;durP1;ratioP1;P2;durP2;ratioP2
50249;SDS011;36133;42.522;27.456;2023-06-14T00:01:33;11.20;;;6.90;;
50249;SDS011;36133;42.522;27.456;2023-06-14T00:03:59;10.13;;;6.90;;
50249;SDS011;36133;42.522;27.456;2023-06-14T00:06:33;9.52;;;6.78;;
50249;SDS011;36133;42.522;27.456;2023-06-14T00:08:58;7.93;;;7.00;;
50249;SDS011;36133;42.522;27.456;2023-06-14T00:11:24;8.02;;;6.82;;
50249;SDS011;36133;42.522;27.456;2023-06-14T00:13:51;13.05;;;7.05;;
50249;SDS011;36133;42.522;27.456;2023-06-14T00:16:17;11.20;;;7.20;;
50249;SDS011;36133;42.522;27.456;2023-06-14T00:18:44;10.80;;;8.15;;
50249;SDS011;36133;42.522;27.456;2023-06-14T00:21:11;9.35;;;7.40;;
50249;SDS011;36133;42.522;27.456;2023-06-14T00:23:37;9.48;;;7.95;;
50249;SDS011;36133;42.522;27.456;2023-06-14T00:26:03;8.55;;;7.53;;
50249;SDS011;36133;42.522;27.456;2023-06-14T00:28:31;10.93;;;7.60;;
50249;SDS011;36133;42.522;27.456;2023-06-14T00:30:57;16.85;;;9.98;;
50249;SDS011;36133;42.522;27.456;2023-06-14T00:33:24;11.93;;;9.85;;
50249;SDS011;36133;42.522;27.456;2023-06-14T00:35:50;25.77;;;11.27;;
50249;SDS011;36133;42.522;27.456;2023-06-14T00:38:19;21.95;;;12.05;;
50249;SDS011;36133;42.522;27.456;2023-06-14T00:40:45;19.15;;;12.70;;
50249;SDS011;36133;42.522;27.456;2023-06-14T00:43:10;25.58;;;16.55;;
50249;SDS011;36133;42.522;27.456;2023-06-14T00:45:36;25.83;;;14.52;;
50249;SDS011;36133;42.522;27.456;2023-06-14T00:48:02;23.63;;;15.50;;
50249;SDS011;36133;42.522;27.456;2023-06-14T00:50:31;25.70;;;16.75;;
50249;SDS011;36133;42.522;27.456;2023-06-14T00:53:01;36.17;;;20.15;;
50249;SDS011;36133;42.522;27.456;2023-06-14T00:55:28;35.47;;;19.88;;
50249;SDS011;36133;42.522;27.456;2023-06-14T00:57:54;33.10;;;19.98;;
50249;SDS011;36133;42.522;27.456;2023-06-14T01:00:20;35.17;;;20.27;;
50249;SDS011;36133;42.522;27.456;2023-06-14T01:02:46;32.80;;;20.25;;
50249;SDS011;36133;42.522;27.456;2023-06-14T01:05:12;44.45;;;26.70;;
50249;SDS011;36133;42.522;27.456;2023-06-14T01:07:43;36.15;;;25.58;;
50249;SDS011;36133;42.522;27.456;2023-06-14T01:15:17;27.67;;;17.48;;
50249;SDS011;36133;42.522;27.456;2023-06-14T01:17:45;24.48;;;17.10;;
50249;SDS011;36133;42.522;27.456;2023-06-14T01:20:16;23.98;;;15.82;;
50249;SDS011;36133;42.522;27.456;2023-06-14T01:22:49;27.15;;;15.75;;
50249;SDS011;36133;42.522;27.456;2023-06-14T01:25:17;27.10;;;16.92;;
50249;SDS011;36133;42.522;27.456;2023-06-14T01:27:45;25.98;;;16.60;;
50249;SDS011;36133;42.522;27.456;2023-06-14T01:30:16;23.23;;;16.05;;
50249;SDS011;36133;42.522;27.456;2023-06-14T01:32:42;25.92;;;17.33;;
50249;SDS011;36133;42.522;27.456;2023-06-14T01:35:10;27.67;;;18.30;;
50249;SDS011;36133;42.522;27.456;2023-06-14T01:37:36;28.38;;;20.15;;
50249;SDS011;36133;42.522;27.456;2023-06-14T01:40:03;30.25;;;19.95;;
50249;SDS011;36133;42.522;27.456;2023-06-14T01:42:33;35.78;;;21.90;;
50249;SDS011;36133;42.522;27.456;2023-06-14T01:45:02;31.25;;;20.17;;
50249;SDS011;36133;42.522;27.456;2023-06-14T01:47:30;28.30;;;19.35;;
50249;SDS011;36133;42.522;27.456;2023-06-14T01:49:56;29.98;;;18.17;;
50249;SDS011;36133;42.522;27.456;2023-06-14T01:52:21;35.42;;;17.40;;
50249;SDS011;36133;42.522;27.456;2023-06-14T01:54:49;29.20;;;17.83;;
50249;SDS011;36133;42.522;27.456;2023-06-14T01:57:15;27.92;;;17.65;;
50249;SDS011;36133;42.522;27.456;2023-06-14T01:59:41;25.42;;;16.83;;
50249;SDS011;36133;42.522;27.456;2023-06-14T02:02:06;28.20;;;17.63;;
50249;SDS011;36133;42.522;27.456;2023-06-14T02:04:32;30.15;;;17.98;;
50249;SDS011;36133;42.522;27.456;2023-06-14T02:06:58;35.60;;;18.25;;
50249;SDS011;36133;42.522;27.456;2023-06-14T02:09:24;27.95;;;17.95;;
50249;SDS011;36133;42.522;27.456;2023-06-14T02:11:50;27.55;;;17.27;;
50249;SDS011;36133;42.522;27.456;2023-06-14T02:14:15;32.35;;;17.70;;
50249;SDS011;36133;42.522;27.456;2023-06-14T02:16:42;35.53;;;19.20;;
50249;SDS011;36133;42.522;27.456;2023-06-14T02:19:14;30.30;;;17.13;;
50249;SDS011;36133;42.522;27.456;2023-06-14T02:21:40;28.65;;;18.42;;
50249;SDS011;36133;42.522;27.456;2023-06-14T02:24:06;29.02;;;19.08;;
50249;SDS011;36133;42.522;27.456;2023-06-14T02:26:32;28.90;;;19.15;;
50249;SDS011;36133;42.522;27.456;2023-06-14T02:28:58;29.27;;;18.20;;
50249;SDS011;36133;42.522;27.456;2023-06-14T02:31:23;27.83;;;18.83;;
50249;SDS011;36133;42.522;27.456;2023-06-14T02:33:49;31.60;;;19.70;;
50249;SDS011;36133;42.522;27.456;2023-06-14T02:36:15;38.65;;;19.60;;
50249;SDS011;36133;42.522;27.456;2023-06-14T02:38:43;30.23;;;20.63;;
50249;SDS011;36133;42.522;27.456;2023-06-14T02:41:09;33.55;;;21.90;;
50249;SDS011;36133;42.522;27.456;2023-06-14T02:43:34;37.63;;;26.45;;
50249;SDS011;36133;42.522;27.456;2023-06-14T02:46:00;34.60;;;23.17;;
50249;SDS011;36133;42.522;27.456;2023-06-14T02:48:26;33.25;;;23.55;;
50249;SDS011;36133;42.522;27.456;2023-06-14T02:50:52;32.00;;;21.00;;
50249;SDS011;36133;42.522;27.456;2023-06-14T02:53:17;33.10;;;20.17;;
50249;SDS011;36133;42.522;27.456;2023-06-14T02:55:43;37.95;;;21.65;;
50249;SDS011;36133;42.522;27.456;2023-06-14T02:58:09;27.27;;;17.60;;
50249;SDS011;36133;42.522;27.456;2023-06-14T03:03:27;24.13;;;15.70;;
50249;SDS011;36133;42.522;27.456;2023-06-14T03:05:53;24.40;;;14.18;;
50249;SDS011;36133;42.522;27.456;2023-06-14T03:08:19;26.33;;;15.10;;
50249;SDS011;36133;42.522;27.456;2023-06-14T03:10:45;25.92;;;15.07;;
50249;SDS011;36133;42.522;27.456;2023-06-14T03:13:15;23.98;;;15.52;;
50249;SDS011;36133;42.522;27.456;2023-06-14T03:15:41;24.90;;;14.80;;
50249;SDS011;36133;42.522;27.456;2023-06-14T03:18:08;26.17;;;16.48;;
50249;SDS011;36133;42.522;27.456;2023-06-14T03:20:34;28.40;;;17.17;;
50249;SDS011;36133;42.522;27.456;2023-06-14T03:23:04;26.08;;;15.82;;
50249;SDS011;36133;42.522;27.456;2023-06-14T03:25:30;24.27;;;16.25;;
50249;SDS011;36133;42.522;27.456;2023-06-14T03:27:56;27.35;;;16.05;;
50249;SDS011;36133;42.522;27.456;2023-06-14T03:30:22;26.15;;;20.00;;
50249;SDS011;36133;42.522;27.456;2023-06-14T03:32:48;33.83;;;26.42;;
50249;SDS011;36133;42.522;27.456;2023-06-14T03:35:13;27.85;;;21.17;;
50249;SDS011;36133;42.522;27.456;2023-06-14T03:37:43;27.67;;;19.92;;
50249;SDS011;36133;42.522;27.456;2023-06-14T03:40:10;20.98;;;14.80;;
50249;SDS011;36133;42.522;27.456;2023-06-14T03:42:42;16.60;;;10.65;;
50249;SDS011;36133;42.522;27.456;2023-06-14T03:45:07;13.30;;;8.77;;
50249;SDS011;36133;42.522;27.456;2023-06-14T03:47:33;12.73;;;9.02;;
50249;SDS011;36133;42.522;27.456;2023-06-14T03:50:00;12.93;;;8.48;;
50249;SDS011;36133;42.522;27.456;2023-06-14T03:52:26;13.50;;;7.95;;
50249;SDS011;36133;42.522;27.456;2023-06-14T03:54:52;11.27;;;8.25;;
50249;SDS011;36133;42.522;27.456;2023-06-14T03:57:18;13.95;;;9.02;;
50249;SDS011;36133;42.522;27.456;2023-06-14T03:59:44;14.13;;;9.38;;
50249;SDS011;36133;42.522;27.456;2023-06-14T04:02:09;26.80;;;10.52;;
50249;SDS011;36133;42.522;27.456;2023-06-14T04:04:35;18.73;;;12.13;;
50249;SDS011;36133;42.522;27.456;2023-06-14T04:07:01;22.67;;;14.00;;
50249;SDS011;36133;42.522;27.456;2023-06-14T04:09:28;28.63;;;21.17;;
50249;SDS011;36133;42.522;27.456;2023-06-14T04:11:55;37.13;;;26.70;;
50249;SDS011;36133;42.522;27.456;2023-06-14T04:14:21;43.25;;;32.22;;
50249;SDS011;36133;42.522;27.456;2023-06-14T04:16:47;39.33;;;27.15;;
50249;SDS011;36133;42.522;27.456;2023-06-14T04:19:14;41.28;;;27.52;;
50249;SDS011;36133;42.522;27.456;2023-06-14T04:21:40;27.90;;;22.13;;
50249;SDS011;36133;42.522;27.456;2023-06-14T04:24:05;33.60;;;18.58;;
50249;SDS011;36133;42.522;27.456;2023-06-14T04:26:32;23.27;;;14.13;;
50249;SDS011;36133;42.522;27.456;2023-06-14T04:29:01;19.77;;;12.35;;
50249;SDS011;36133;42.522;27.456;2023-06-14T04:31:28;16.20;;;10.25;;
50249;SDS011;36133;42.522;27.456;2023-06-14T04:33:55;20.05;;;9.57;;
50249;SDS011;36133;42.522;27.456;2023-06-14T04:36:24;14.52;;;7.97;;
50249;SDS011;36133;42.522;27.456;2023-06-14T04:38:50;10.75;;;6.40;;
50249;SDS011;36133;42.522;27.456;2023-06-14T04:41:20;12.73;;;6.90;;
50249;SDS011;36133;42.522;27.456;2023-06-14T04:43:47;8.70;;;6.20;;
50249;SDS011;36133;42.522;27.456;2023-06-14T04:46:18;14.30;;;5.47;;
50249;SDS011;36133;42.522;27.456;2023-06-14T04:48:44;12.40;;;5.43;;
50249;SDS011;36133;42.522;27.456;2023-06-14T04:51:11;8.60;;;4.72;;
50249;SDS011;36133;42.522;27.456;2023-06-14T04:53:38;9.27;;;5.13;;
50249;SDS011;36133;42.522;27.456;2023-06-14T04:56:03;7.20;;;4.80;;
50249;SDS011;36133;42.522;27.456;2023-06-14T04:58:29;9.88;;;5.10;;
50249;SDS011;36133;42.522;27.456;2023-06-14T05:00:55;7.88;;;5.15;;
50249;SDS011;36133;42.522;27.456;2023-06-14T05:03:21;11.98;;;5.05;;
50249;SDS011;36133;42.522;27.456;2023-06-14T05:05:49;12.82;;;5.00;;
50249;SDS011;36133;42.522;27.456;2023-06-14T05:08:15;14.50;;;5.35;;
50249;SDS011;36133;42.522;27.456;2023-06-14T05:10:41;7.60;;;4.60;;
50249;SDS011;36133;42.522;27.456;2023-06-14T05:13:06;6.95;;;4.32;;
50249;SDS011;36133;42.522;27.456;2023-06-14T05:15:32;17.63;;;4.65;;
50249;SDS011;36133;42.522;27.456;2023-06-14T05:17:59;9.93;;;3.95;;
50249;SDS011;36133;42.522;27.456;2023-06-14T05:20:24;6.53;;;3.80;;
50249;SDS011;36133;42.522;27.456;2023-06-14T05:22:54;7.53;;;3.58;;
50249;SDS011;36133;42.522;27.456;2023-06-14T05:25:22;10.50;;;3.75;;
50249;SDS011;36133;42.522;27.456;2023-06-14T05:27:47;9.95;;;4.03;;
50249;SDS011;36133;42.522;27.456;2023-06-14T05:30:14;10.40;;;3.85;;
50249;SDS011;36133;42.522;27.456;2023-06-14T05:32:40;7.65;;;3.67;;
50249;SDS011;36133;42.522;27.456;2023-06-14T05:35:07;5.25;;;3.60;;
50249;SDS011;36133;42.522;27.456;2023-06-14T05:37:33;10.65;;;4.43;;
50249;SDS011;36133;42.522;27.456;2023-06-14T05:39:58;15.45;;;6.47;;
50249;SDS011;36133;42.522;27.456;2023-06-14T05:42:24;12.07;;;6.68;;
50249;SDS011;36133;42.522;27.456;2023-06-14T05:44:49;12.82;;;6.63;;
50249;SDS011;36133;42.522;27.456;2023-06-14T05:47:15;12.57;;;7.40;;
50249;SDS011;36133;42.522;27.456;2023-06-14T05:49:41;12.30;;;7.22;;
50249;SDS011;36133;42.522;27.456;2023-06-14T05:52:07;14.30;;;6.40;;
50249;SDS011;36133;42.522;27.456;2023-06-14T05:54:33;13.07;;;6.55;;
50249;SDS011;36133;42.522;27.456;2023-06-14T05:56:58;9.65;;;6.18;;
50249;SDS011;36133;42.522;27.456;2023-06-14T05:59:26;10.50;;;6.15;;
50249;SDS011;36133;42.522;27.456;2023-06-14T06:01:52;11.45;;;5.82;;
50249;SDS011;36133;42.522;27.456;2023-06-14T06:04:18;11.73;;;6.00;;
50249;SDS011;36133;42.522;27.456;2023-06-14T06:06:44;8.43;;;5.15;;
50249;SDS011;36133;42.522;27.456;2023-06-14T06:09:10;13.10;;;5.55;;
50249;SDS011;36133;42.522;27.456;2023-06-14T06:11:36;15.57;;;6.10;;
50249;SDS011;36133;42.522;27.456;2023-06-14T06:14:04;10.60;;;5.75;;
50249;SDS011;36133;42.522;27.456;2023-06-14T06:16:30;12.25;;;6.13;;
50249;SDS011;36133;42.522;27.456;2023-06-14T06:18:55;9.60;;;5.88;;
50249;SDS011;36133;42.522;27.456;2023-06-14T06:21:21;10.70;;;5.65;;
50249;SDS011;36133;42.522;27.456;2023-06-14T06:23:47;8.05;;;4.75;;
50249;SDS011;36133;42.522;27.456;2023-06-14T06:26:12;7.30;;;5.05;;
50249;SDS011;36133;42.522;27.456;2023-06-14T06:28:38;11.38;;;5.07;;
50249;SDS011;36133;42.522;27.456;2023-06-14T06:31:05;6.88;;;4.70;;
50249;SDS011;36133;42.522;27.456;2023-06-14T06:33:42;7.25;;;4.57;;
50249;SDS011;36133;42.522;27.456;2023-06-14T06:36:07;7.78;;;4.63;;
50249;SDS011;36133;42.522;27.456;2023-06-14T06:38:45;9.15;;;4.57;;
50249;SDS011;36133;42.522;27.456;2023-06-14T06:41:11;13.77;;;4.55;;
50249;SDS011;36133;42.522;27.456;2023-06-14T06:43:36;6.80;;;4.88;;
50249;SDS011;36133;42.522;27.456;2023-06-14T06:46:02;9.38;;;4.40;;
50249;SDS011;36133;42.522;27.456;2023-06-14T06:48:29;8.32;;;4.65;;
50249;SDS011;36133;42.522;27.456;2023-06-14T06:50:54;7.88;;;4.85;;
50249;SDS011;36133;42.522;27.456;2023-06-14T06:53:20;9.05;;;3.95;;
50249;SDS011;36133;42.522;27.456;2023-06-14T06:55:46;10.77;;;4.30;;
50249;SDS011;36133;42.522;27.456;2023-06-14T06:58:14;11.93;;;4.70;;
50249;SDS011;36133;42.522;27.456;2023-06-14T07:00:41;13.90;;;4.40;;
50249;SDS011;36133;42.522;27.456;2023-06-14T07:03:07;13.75;;;4.85;;
50249;SDS011;36133;42.522;27.456;2023-06-14T07:05:39;9.73;;;4.03;;
50249;SDS011;36133;42.522;27.456;2023-06-14T07:08:14;7.57;;;3.70;;
50249;SDS011;36133;42.522;27.456;2023-06-14T07:10:40;7.80;;;3.95;;
50249;SDS011;36133;42.522;27.456;2023-06-14T07:13:11;7.15;;;4.10;;
50249;SDS011;36133;42.522;27.456;2023-06-14T07:15:37;9.00;;;4.68;;
50249;SDS011;36133;42.522;27.456;2023-06-14T07:18:03;6.82;;;2.95;;
50249;SDS011;36133;42.522;27.456;2023-06-14T07:20:32;4.82;;;2.97;;
50249;SDS011;36133;42.522;27.456;2023-06-14T07:22:58;8.35;;;2.90;;
50249;SDS011;36133;42.522;27.456;2023-06-14T07:25:26;8.02;;;2.70;;
50249;SDS011;36133;42.522;27.456;2023-06-14T07:27:52;4.93;;;2.55;;
50249;SDS011;36133;42.522;27.456;2023-06-14T07:30:19;7.90;;;2.72;;
50249;SDS011;36133;42.522;27.456;2023-06-14T07:36:01;9.48;;;2.20;;
50249;SDS011;36133;42.522;27.456;2023-06-14T07:38:29;6.65;;;2.65;;
50249;SDS011;36133;42.522;27.456;2023-06-14T07:41:00;6.22;;;2.60;;
50249;SDS011;36133;42.522;27.456;2023-06-14T07:43:26;3.58;;;2.58;;
50249;SDS011;36133;42.522;27.456;2023-06-14T07:45:52;27.33;;;2.92;;
50249;SDS011;36133;42.522;27.456;2023-06-14T07:48:20;4.88;;;2.63;;
50249;SDS011;36133;42.522;27.456;2023-06-14T07:50:55;8.57;;;2.50;;
50249;SDS011;36133;42.522;27.456;2023-06-14T07:53:24;3.70;;;2.20;;
50249;SDS011;36133;42.522;27.456;2023-06-14T07:55:54;3.50;;;2.20;;
50249;SDS011;36133;42.522;27.456;2023-06-14T07:58:23;2.85;;;1.90;;
50249;SDS011;36133;42.522;27.456;2023-06-14T08:00:49;4.50;;;2.10;;
50249;SDS011;36133;42.522;27.456;2023-06-14T08:03:20;4.78;;;3.17;;
50249;SDS011;36133;42.522;27.456;2023-06-14T08:05:47;6.35;;;2.92;;
50249;SDS011;36133;42.522;27.456;2023-06-14T08:08:13;6.13;;;3.15;;
50249;SDS011;36133;42.522;27.456;2023-06-14T08:10:42;6.15;;;3.20;;
50249;SDS011;36133;42.522;27.456;2023-06-14T08:13:07;7.40;;;3.20;;
50249;SDS011;36133;42.522;27.456;2023-06-14T08:15:34;7.43;;;3.63;;
50249;SDS011;36133;42.522;27.456;2023-06-14T08:18:00;8.80;;;4.13;;
50249;SDS011;36133;42.522;27.456;2023-06-14T08:20:29;7.25;;;4.18;;
50249;SDS011;36133;42.522;27.456;2023-06-14T08:23:07;14.65;;;4.05;;
50249;SDS011;36133;42.522;27.456;2023-06-14T08:25:34;7.55;;;3.70;;
50249;SDS011;36133;42.522;27.456;2023-06-14T08:27:59;5.10;;;3.20;;
50249;SDS011;36133;42.522;27.456;2023-06-14T08:30:25;7.32;;;3.30;;
50249;SDS011;36133;42.522;27.456;2023-06-14T08:32:51;12.90;;;3.95;;
50249;SDS011;36133;42.522;27.456;2023-06-14T08:35:20;7.38;;;3.60;;
50249;SDS011;36133;42.522;27.456;2023-06-14T08:37:47;8.30;;;3.90;;
50249;SDS011;36133;42.522;27.456;2023-06-14T08:40:22;4.40;;;3.55;;
50249;SDS011;36133;42.522;27.456;2023-06-14T08:42:52;4.47;;;3.20;;
50249;SDS011;36133;42.522;27.456;2023-06-14T08:45:22;9.48;;;3.47;;
50249;SDS011;36133;42.522;27.456;2023-06-14T08:47:50;11.30;;;3.67;;
50249;SDS011;36133;42.522;27.456;2023-06-14T08:50:23;10.35;;;3.70;;
50249;SDS011;36133;42.522;27.456;2023-06-14T08:53:06;6.43;;;3.40;;
50249;SDS011;36133;42.522;27.456;2023-06-14T08:59:00;5.37;;;3.43;;
50249;SDS011;36133;42.522;27.456;2023-06-14T09:01:28;7.13;;;3.00;;
50249;SDS011;36133;42.522;27.456;2023-06-14T09:03:54;7.35;;;3.42;;
50249;SDS011;36133;42.522;27.456;2023-06-14T09:06:24;7.88;;;3.53;;
50249;SDS011;36133;42.522;27.456;2023-06-14T09:08:53;5.47;;;2.80;;
50249;SDS011;36133;42.522;27.456;2023-06-14T09:11:25;4.38;;;2.80;;
50249;SDS011;36133;42.522;27.456;2023-06-14T09:13:51;5.28;;;2.90;;
50249;SDS011;36133;42.522;27.456;2023-06-14T09:16:17;4.57;;;3.28;;
50249;SDS011;36133;42.522;27.456;2023-06-14T09:18:46;3.88;;;2.72;;
50249;SDS011;36133;42.522;27.456;2023-06-14T09:21:22;4.00;;;2.72;;
50249;SDS011;36133;42.522;27.456;2023-06-14T09:23:56;3.58;;;2.90;;
50249;SDS011;36133;42.522;27.456;2023-06-14T09:26:22;5.07;;;3.05;;
50249;SDS011;36133;42.522;27.456;2023-06-14T09:28:49;9.25;;;3.63;;
50249;SDS011;36133;42.522;27.456;2023-06-14T09:31:16;5.68;;;3.20;;
50249;SDS011;36133;42.522;27.456;2023-06-14T09:33:47;8.02;;;4.43;;
50249;SDS011;36133;42.522;27.456;2023-06-14T09:36:26;5.80;;;3.00;;
50249;SDS011;36133;42.522;27.456;2023-06-14T09:38:56;6.10;;;2.95;;
50249;SDS011;36133;42.522;27.456;2023-06-14T09:41:41;6.00;;;3.90;;
50249;SDS011;36133;42.522;27.456;2023-06-14T09:44:11;20.27;;;3.60;;
50249;SDS011;36133;42.522;27.456;2023-06-14T09:46:49;7.82;;;3.10;;
50249;SDS011;36133;42.522;27.456;2023-06-14T09:49:18;5.30;;;3.03;;
50249;SDS011;36133;42.522;27.456;2023-06-14T09:51:45;5.13;;;3.10;;
50249;SDS011;36133;42.522;27.456;2023-06-14T09:54:16;9.57;;;3.15;;
50249;SDS011;36133;42.522;27.456;2023-06-14T09:56:47;5.63;;;3.05;;
50249;SDS011;36133;42.522;27.456;2023-06-14T09:59:26;3.63;;;2.70;;
50249;SDS011;36133;42.522;27.456;2023-06-14T10:01:59;4.15;;;2.60;;
50249;SDS011;36133;42.522;27.456;2023-06-14T10:10:22;4.00;;;2.90;;
50249;SDS011;36133;42.522;27.456;2023-06-14T10:12:47;6.38;;;3.10;;
50249;SDS011;36133;42.522;27.456;2023-06-14T10:15:19;9.43;;;3.00;;
50249;SDS011;36133;42.522;27.456;2023-06-14T10:18:06;3.00;;;2.70;;
50249;SDS011;36133;42.522;27.456;2023-06-14T10:21:08;7.15;;;3.00;;
50249;SDS011;36133;42.522;27.456;2023-06-14T10:23:44;5.82;;;2.75;;
50249;SDS011;36133;42.522;27.456;2023-06-14T10:29:25;5.85;;;2.92;;
50249;SDS011;36133;42.522;27.456;2023-06-14T10:34:38;4.13;;;3.00;;
50249;SDS011;36133;42.522;27.456;2023-06-14T10:37:13;4.55;;;2.85;;
50249;SDS011;36133;42.522;27.456;2023-06-14T10:42:14;8.30;;;2.97;;
50249;SDS011;36133;42.522;27.456;2023-06-14T10:44:48;3.35;;;2.47;;
50249;SDS011;36133;42.522;27.456;2023-06-14T10:47:20;4.40;;;2.65;;
50249;SDS011;36133;42.522;27.456;2023-06-14T10:52:33;6.22;;;2.63;;
50249;SDS011;36133;42.522;27.456;2023-06-14T10:57:43;2.85;;;2.00;;
50249;SDS011;36133;42.522;27.456;2023-06-14T11:00:19;4.85;;;2.40;;
50249;SDS011;36133;42.522;27.456;2023-06-14T11:02:51;3.90;;;2.15;;
50249;SDS011;36133;42.522;27.456;2023-06-14T11:05:42;2.92;;;2.25;;
50249;SDS011;36133;42.522;27.456;2023-06-14T11:11:08;6.80;;;2.88;;
50249;SDS011;36133;42.522;27.456;2023-06-14T11:13:41;7.40;;;3.00;;
50249;SDS011;36133;42.522;27.456;2023-06-14T11:16:15;5.07;;;2.50;;
50249;SDS011;36133;42.522;27.456;2023-06-14T11:18:44;9.07;;;2.78;;
50249;SDS011;36133;42.522;27.456;2023-06-14T11:21:31;4.95;;;2.55;;
50249;SDS011;36133;42.522;27.456;2023-06-14T11:24:09;6.53;;;2.70;;
50249;SDS011;36133;42.522;27.456;2023-06-14T11:26:37;6.47;;;2.67;;
50249;SDS011;36133;42.522;27.456;2023-06-14T11:29:03;5.90;;;2.85;;
50249;SDS011;36133;42.522;27.456;2023-06-14T11:31:29;5.03;;;2.40;;
50249;SDS011;36133;42.522;27.456;2023-06-14T11:33:56;4.30;;;2.92;;
50249;SDS011;36133;42.522;27.456;2023-06-14T11:36:31;4.85;;;2.47;;
50249;SDS011;36133;42.522;27.456;2023-06-14T11:39:02;4.18;;;2.53;;
50249;SDS011;36133;42.522;27.456;2023-06-14T11:41:43;10.40;;;2.58;;
50249;SDS011;36133;42.522;27.456;2023-06-14T11:44:10;3.03;;;2.45;;
50249;SDS011;36133;42.522;27.456;2023-06-14T11:46:47;8.10;;;2.63;;
50249;SDS011;36133;42.522;27.456;2023-06-14T11:49:12;5.65;;;2.80;;
50249;SDS011;36133;42.522;27.456;2023-06-14T11:51:38;4.43;;;2.33;;
50249;SDS011;36133;42.522;27.456;2023-06-14T11:54:07;5.10;;;2.55;;
50249;SDS011;36133;42.522;27.456;2023-06-14T11:56:33;7.25;;;2.90;;
50249;SDS011;36133;42.522;27.456;2023-06-14T11:59:02;5.40;;;2.08;;
50249;SDS011;36133;42.522;27.456;2023-06-14T12:01:31;4.82;;;2.40;;
50249;SDS011;36133;42.522;27.456;2023-06-14T12:04:02;2.30;;;2.10;;
50249;SDS011;36133;42.522;27.456;2023-06-14T12:06:29;6.32;;;2.38;;
50249;SDS011;36133;42.522;27.456;2023-06-14T12:09:03;7.35;;;2.70;;
50249;SDS011;36133;42.522;27.456;2023-06-14T12:11:33;5.78;;;3.75;;
50249;SDS011;36133;42.522;27.456;2023-06-14T12:14:02;3.30;;;2.92;;
50249;SDS011;36133;42.522;27.456;2023-06-14T12:16:30;4.68;;;2.38;;
50249;SDS011;36133;42.522;27.456;2023-06-14T12:19:01;6.60;;;2.78;;
50249;SDS011;36133;42.522;27.456;2023-06-14T12:21:36;5.07;;;2.60;;
50249;SDS011;36133;42.522;27.456;2023-06-14T12:24:06;4.45;;;2.55;;
50249;SDS011;36133;42.522;27.456;2023-06-14T12:26:32;4.10;;;2.42;;
50249;SDS011;36133;42.522;27.456;2023-06-14T12:28:58;10.65;;;2.10;;
50249;SDS011;36133;42.522;27.456;2023-06-14T12:31:37;4.22;;;2.20;;
50249;SDS011;36133;42.522;27.456;2023-06-14T12:34:08;7.00;;;2.70;;
50249;SDS011;36133;42.522;27.456;2023-06-14T12:36:41;9.07;;;2.95;;
50249;SDS011;36133;42.522;27.456;2023-06-14T12:39:10;5.57;;;2.38;;
50249;SDS011;36133;42.522;27.456;2023-06-14T12:41:44;3.95;;;2.40;;
50249;SDS011;36133;42.522;27.456;2023-06-14T12:44:12;7.38;;;2.63;;
50249;SDS011;36133;42.522;27.456;2023-06-14T12:46:41;7.22;;;2.78;;
50249;SDS011;36133;42.522;27.456;2023-06-14T12:49:09;7.13;;;3.00;;
50249;SDS011;36133;42.522;27.456;2023-06-14T12:51:48;5.72;;;2.60;;
50249;SDS011;36133;42.522;27.456;2023-06-14T12:54:14;4.40;;;2.90;;
50249;SDS011;36133;42.522;27.456;2023-06-14T12:56:47;6.90;;;3.05;;
50249;SDS011;36133;42.522;27.456;2023-06-14T12:59:14;5.53;;;3.03;;
50249;SDS011;36133;42.522;27.456;2023-06-14T13:01:42;9.88;;;3.22;;
50249;SDS011;36133;42.522;27.456;2023-06-14T13:04:09;4.57;;;3.47;;
50249;SDS011;36133;42.522;27.456;2023-06-14T13:06:50;14.07;;;5.72;;
50249;SDS011;36133;42.522;27.456;2023-06-14T13:09:19;6.68;;;2.83;;
50249;SDS011;36133;42.522;27.456;2023-06-14T13:11:48;4.75;;;3.10;;
50249;SDS011;36133;42.522;27.456;2023-06-14T13:14:13;6.43;;;3.33;;
50249;SDS011;36133;42.522;27.456;2023-06-14T13:16:40;5.35;;;3.20;;
50249;SDS011;36133;42.522;27.456;2023-06-14T13:19:06;5.93;;;3.20;;
50249;SDS011;36133;42.522;27.456;2023-06-14T13:21:35;7.35;;;4.50;;
50249;SDS011;36133;42.522;27.456;2023-06-14T13:24:06;3.78;;;2.97;;
50249;SDS011;36133;42.522;27.456;2023-06-14T13:26:33;6.55;;;3.42;;
50249;SDS011;36133;42.522;27.456;2023-06-14T13:29:00;3.88;;;3.25;;
50249;SDS011;36133;42.522;27.456;2023-06-14T13:31:25;6.13;;;2.90;;
50249;SDS011;36133;42.522;27.456;2023-06-14T13:33:51;3.15;;;2.85;;
50249;SDS011;36133;42.522;27.456;2023-06-14T13:36:16;5.03;;;3.50;;
50249;SDS011;36133;42.522;27.456;2023-06-14T13:38:42;5.57;;;3.42;;
50249;SDS011;36133;42.522;27.456;2023-06-14T13:41:08;7.28;;;3.33;;
50249;SDS011;36133;42.522;27.456;2023-06-14T13:43:34;4.63;;;3.67;;
50249;SDS011;36133;42.522;27.456;2023-06-14T13:46:03;3.55;;;3.25;;
50249;SDS011;36133;42.522;27.456;2023-06-14T13:48:29;4.05;;;3.15;;
50249;SDS011;36133;42.522;27.456;2023-06-14T13:50:54;5.00;;;2.70;;
50249;SDS011;36133;42.522;27.456;2023-06-14T13:53:20;6.88;;;2.60;;
50249;SDS011;36133;42.522;27.456;2023-06-14T13:55:46;6.10;;;3.03;;
50249;SDS011;36133;42.522;27.456;2023-06-14T13:58:12;5.50;;;2.63;;
50249;SDS011;36133;42.522;27.456;2023-06-14T14:00:40;3.40;;;2.67;;
50249;SDS011;36133;42.522;27.456;2023-06-14T14:03:06;5.85;;;2.78;;
50249;SDS011;36133;42.522;27.456;2023-06-14T14:05:32;4.00;;;2.92;;
50249;SDS011;36133;42.522;27.456;2023-06-14T14:07:58;5.10;;;2.92;;
50249;SDS011;36133;42.522;27.456;2023-06-14T14:10:24;10.18;;;3.05;;
50249;SDS011;36133;42.522;27.456;2023-06-14T14:12:50;7.80;;;3.33;;
50249;SDS011;36133;42.522;27.456;2023-06-14T14:15:18;6.57;;;3.15;;
50249;SDS011;36133;42.522;27.456;2023-06-14T14:17:44;6.68;;;2.75;;
50249;SDS011;36133;42.522;27.456;2023-06-14T14:20:10;6.95;;;3.13;;
50249;SDS011;36133;42.522;27.456;2023-06-14T14:22:41;3.20;;;2.90;;
50249;SDS011;36133;42.522;27.456;2023-06-14T14:25:07;4.47;;;3.10;;
50249;SDS011;36133;42.522;27.456;2023-06-14T14:27:33;5.60;;;2.97;;
50249;SDS011;36133;42.522;27.456;2023-06-14T14:29:59;4.03;;;2.70;;
50249;SDS011;36133;42.522;27.456;2023-06-14T14:32:25;5.38;;;4.10;;
50249;SDS011;36133;42.522;27.456;2023-06-14T14:34:51;4.90;;;2.90;;
50249;SDS011;36133;42.522;27.456;2023-06-14T14:37:17;4.30;;;2.85;;
50249;SDS011;36133;42.522;27.456;2023-06-14T14:39:45;4.55;;;3.05;;
50249;SDS011;36133;42.522;27.456;2023-06-14T14:42:11;5.57;;;2.97;;
50249;SDS011;36133;42.522;27.456;2023-06-14T14:44:38;5.05;;;3.30;;
50249;SDS011;36133;42.522;27.456;2023-06-14T14:47:06;15.63;;;3.97;;
50249;SDS011;36133;42.522;27.456;2023-06-14T14:49:37;9.40;;;5.20;;
50249;SDS011;36133;42.522;27.456;2023-06-14T14:52:02;9.98;;;3.90;;
50249;SDS011;36133;42.522;27.456;2023-06-14T14:54:28;8.40;;;3.40;;
50249;SDS011;36133;42.522;27.456;2023-06-14T14:57:00;7.03;;;3.63;;
50249;SDS011;36133;42.522;27.456;2023-06-14T14:59:26;4.88;;;4.00;;
50249;SDS011;36133;42.522;27.456;2023-06-14T15:01:52;6.03;;;3.90;;
50249;SDS011;36133;42.522;27.456;2023-06-14T15:04:17;4.30;;;3.47;;
50249;SDS011;36133;42.522;27.456;2023-06-14T15:06:43;5.00;;;3.30;;
50249;SDS011;36133;42.522;27.456;2023-06-14T15:09:12;6.47;;;3.47;;